Terminal Aerodrome Forecast
Issued by NWS Tulsa, OK

Current Version | Previous Version | Text Only | Print | Product List | Glossary On
Versions: 1 2 3 4 5 6 7 8 9 10 11 12 13 14 15 16 17 18 19 20
837
FTUS44 KTSA 300307 AAA
TAFTUL
TAF AMD
KTUL 300307Z 3003/3024 25017G22KT P6SM BKN100
     FM300800 26014G21KT P6SM OVC015
     FM301800 29015G22KT P6SM OVC015=

USA.gov is the U.S. government's official web portal to all federal, state and local government web resources and services.